sensor_id;sensor_type;location;lat;lon;timestamp;P1;durP1;ratioP1;P2;durP2;ratioP2
65230;SDS011;51813;40.666;16.602;2023-04-03T00:01:09;8.40;;;3.65;;
65230;SDS011;51813;40.666;16.602;2023-04-03T00:03:35;5.80;;;3.38;;
65230;SDS011;51813;40.666;16.602;2023-04-03T00:06:01;6.32;;;3.33;;
65230;SDS011;51813;40.666;16.602;2023-04-03T00:08:27;6.00;;;3.42;;
65230;SDS011;51813;40.666;16.602;2023-04-03T00:10:55;6.22;;;3.28;;
65230;SDS011;51813;40.666;16.602;2023-04-03T00:13:22;5.80;;;2.80;;
65230;SDS011;51813;40.666;16.602;2023-04-03T00:15:48;7.25;;;3.25;;
65230;SDS011;51813;40.666;16.602;2023-04-03T00:18:13;6.05;;;3.20;;
65230;SDS011;51813;40.666;16.602;2023-04-03T00:20:40;8.35;;;3.38;;
65230;SDS011;51813;40.666;16.602;2023-04-03T00:23:06;4.82;;;2.92;;
65230;SDS011;51813;40.666;16.602;2023-04-03T00:25:32;6.10;;;2.97;;
65230;SDS011;51813;40.666;16.602;2023-04-03T00:27:57;8.52;;;3.35;;
65230;SDS011;51813;40.666;16.602;2023-04-03T00:30:23;5.07;;;3.00;;
65230;SDS011;51813;40.666;16.602;2023-04-03T00:32:49;4.85;;;2.88;;
65230;SDS011;51813;40.666;16.602;2023-04-03T00:35:16;5.45;;;2.70;;
65230;SDS011;51813;40.666;16.602;2023-04-03T00:37:43;5.80;;;2.85;;
65230;SDS011;51813;40.666;16.602;2023-04-03T00:40:10;6.97;;;3.03;;
65230;SDS011;51813;40.666;16.602;2023-04-03T00:42:37;6.25;;;3.03;;
65230;SDS011;51813;40.666;16.602;2023-04-03T00:47:29;5.22;;;2.72;;
65230;SDS011;51813;40.666;16.602;2023-04-03T00:49:56;5.15;;;2.63;;
65230;SDS011;51813;40.666;16.602;2023-04-03T00:52:25;5.00;;;2.75;;
65230;SDS011;51813;40.666;16.602;2023-04-03T00:54:56;4.75;;;2.60;;
65230;SDS011;51813;40.666;16.602;2023-04-03T00:57:26;5.13;;;2.83;;
65230;SDS011;51813;40.666;16.602;2023-04-03T00:59:55;5.20;;;2.65;;
65230;SDS011;51813;40.666;16.602;2023-04-03T01:02:26;4.75;;;2.50;;
65230;SDS011;51813;40.666;16.602;2023-04-03T01:04:52;4.53;;;3.05;;
65230;SDS011;51813;40.666;16.602;2023-04-03T01:07:19;5.47;;;3.08;;
65230;SDS011;51813;40.666;16.602;2023-04-03T01:09:52;5.93;;;2.80;;
65230;SDS011;51813;40.666;16.602;2023-04-03T01:14:55;6.18;;;2.58;;
65230;SDS011;51813;40.666;16.602;2023-04-03T01:19:54;5.20;;;3.13;;
65230;SDS011;51813;40.666;16.602;2023-04-03T01:22:48;4.93;;;2.70;;
65230;SDS011;51813;40.666;16.602;2023-04-03T01:25:22;4.28;;;2.72;;
65230;SDS011;51813;40.666;16.602;2023-04-03T01:27:49;6.18;;;2.80;;
65230;SDS011;51813;40.666;16.602;2023-04-03T01:30:16;5.75;;;3.00;;
65230;SDS011;51813;40.666;16.602;2023-04-03T01:32:43;4.35;;;2.47;;
65230;SDS011;51813;40.666;16.602;2023-04-03T01:35:09;4.18;;;2.40;;
65230;SDS011;51813;40.666;16.602;2023-04-03T01:37:35;5.78;;;3.00;;
65230;SDS011;51813;40.666;16.602;2023-04-03T01:40:01;4.65;;;2.40;;
65230;SDS011;51813;40.666;16.602;2023-04-03T01:42:28;4.28;;;2.55;;
65230;SDS011;51813;40.666;16.602;2023-04-03T01:44:54;3.65;;;2.20;;
65230;SDS011;51813;40.666;16.602;2023-04-03T01:47:20;4.35;;;2.40;;
65230;SDS011;51813;40.666;16.602;2023-04-03T01:49:46;6.55;;;2.70;;
65230;SDS011;51813;40.666;16.602;2023-04-03T01:52:12;4.07;;;2.25;;
65230;SDS011;51813;40.666;16.602;2023-04-03T01:54:37;4.32;;;2.10;;
65230;SDS011;51813;40.666;16.602;2023-04-03T01:57:03;5.45;;;2.17;;
65230;SDS011;51813;40.666;16.602;2023-04-03T01:59:29;4.80;;;2.22;;
65230;SDS011;51813;40.666;16.602;2023-04-03T02:01:55;4.68;;;2.40;;
65230;SDS011;51813;40.666;16.602;2023-04-03T02:04:20;6.57;;;2.67;;
65230;SDS011;51813;40.666;16.602;2023-04-03T02:06:46;5.78;;;2.90;;
65230;SDS011;51813;40.666;16.602;2023-04-03T02:09:12;6.00;;;2.17;;
65230;SDS011;51813;40.666;16.602;2023-04-03T02:11:38;5.70;;;2.30;;
65230;SDS011;51813;40.666;16.602;2023-04-03T02:14:03;4.43;;;2.10;;
65230;SDS011;51813;40.666;16.602;2023-04-03T02:16:29;4.55;;;2.28;;
65230;SDS011;51813;40.666;16.602;2023-04-03T02:18:55;6.38;;;2.50;;
65230;SDS011;51813;40.666;16.602;2023-04-03T02:21:21;6.00;;;2.17;;
65230;SDS011;51813;40.666;16.602;2023-04-03T02:23:47;3.75;;;1.90;;
65230;SDS011;51813;40.666;16.602;2023-04-03T02:26:14;4.80;;;2.30;;
65230;SDS011;51813;40.666;16.602;2023-04-03T02:28:40;4.28;;;2.13;;
65230;SDS011;51813;40.666;16.602;2023-04-03T02:31:06;6.20;;;1.88;;
65230;SDS011;51813;40.666;16.602;2023-04-03T02:33:33;5.05;;;2.22;;
65230;SDS011;51813;40.666;16.602;2023-04-03T02:36:01;5.85;;;2.20;;
65230;SDS011;51813;40.666;16.602;2023-04-03T02:38:28;4.78;;;2.55;;
65230;SDS011;51813;40.666;16.602;2023-04-03T02:40:59;5.68;;;2.40;;
65230;SDS011;51813;40.666;16.602;2023-04-03T02:43:28;4.85;;;2.20;;
65230;SDS011;51813;40.666;16.602;2023-04-03T02:45:54;4.80;;;2.30;;
65230;SDS011;51813;40.666;16.602;2023-04-03T02:48:21;7.13;;;2.53;;
65230;SDS011;51813;40.666;16.602;2023-04-03T02:50:47;4.47;;;1.80;;
65230;SDS011;51813;40.666;16.602;2023-04-03T02:53:13;5.72;;;2.53;;
65230;SDS011;51813;40.666;16.602;2023-04-03T02:55:40;5.38;;;2.30;;
65230;SDS011;51813;40.666;16.602;2023-04-03T02:58:06;3.35;;;1.75;;
65230;SDS011;51813;40.666;16.602;2023-04-03T03:00:32;7.53;;;3.10;;
65230;SDS011;51813;40.666;16.602;2023-04-03T03:02:58;4.70;;;2.15;;
65230;SDS011;51813;40.666;16.602;2023-04-03T03:05:25;4.97;;;2.17;;
65230;SDS011;51813;40.666;16.602;2023-04-03T03:07:51;4.82;;;2.22;;
65230;SDS011;51813;40.666;16.602;2023-04-03T03:10:17;5.22;;;2.15;;
65230;SDS011;51813;40.666;16.602;2023-04-03T03:12:42;4.38;;;2.10;;
65230;SDS011;51813;40.666;16.602;2023-04-03T03:15:08;5.22;;;2.03;;
65230;SDS011;51813;40.666;16.602;2023-04-03T03:17:34;4.80;;;2.33;;
65230;SDS011;51813;40.666;16.602;2023-04-03T03:20:01;3.88;;;1.95;;
65230;SDS011;51813;40.666;16.602;2023-04-03T03:22:28;7.47;;;2.63;;
65230;SDS011;51813;40.666;16.602;2023-04-03T03:24:53;5.50;;;2.03;;
65230;SDS011;51813;40.666;16.602;2023-04-03T03:27:19;4.82;;;1.85;;
65230;SDS011;51813;40.666;16.602;2023-04-03T03:29:45;6.13;;;2.20;;
65230;SDS011;51813;40.666;16.602;2023-04-03T03:32:11;3.67;;;1.80;;
65230;SDS011;51813;40.666;16.602;2023-04-03T03:34:37;3.28;;;1.80;;
65230;SDS011;51813;40.666;16.602;2023-04-03T03:37:03;4.00;;;1.83;;
65230;SDS011;51813;40.666;16.602;2023-04-03T03:39:29;5.72;;;1.92;;
65230;SDS011;51813;40.666;16.602;2023-04-03T03:41:55;3.17;;;1.70;;
65230;SDS011;51813;40.666;16.602;2023-04-03T03:44:21;4.85;;;1.90;;
65230;SDS011;51813;40.666;16.602;2023-04-03T03:46:46;4.47;;;2.05;;
65230;SDS011;51813;40.666;16.602;2023-04-03T03:49:12;5.82;;;2.10;;
65230;SDS011;51813;40.666;16.602;2023-04-03T03:51:38;4.32;;;2.03;;
65230;SDS011;51813;40.666;16.602;2023-04-03T03:54:05;3.97;;;1.67;;
65230;SDS011;51813;40.666;16.602;2023-04-03T03:56:31;3.70;;;1.73;;
65230;SDS011;51813;40.666;16.602;2023-04-03T03:58:57;3.22;;;1.50;;
65230;SDS011;51813;40.666;16.602;2023-04-03T04:01:23;4.68;;;1.70;;
65230;SDS011;51813;40.666;16.602;2023-04-03T04:03:49;3.97;;;1.83;;
65230;SDS011;51813;40.666;16.602;2023-04-03T04:06:15;4.03;;;1.70;;
65230;SDS011;51813;40.666;16.602;2023-04-03T04:08:41;4.55;;;1.85;;
65230;SDS011;51813;40.666;16.602;2023-04-03T04:11:07;3.38;;;1.42;;
65230;SDS011;51813;40.666;16.602;2023-04-03T04:13:34;3.40;;;1.60;;
65230;SDS011;51813;40.666;16.602;2023-04-03T04:15:59;3.03;;;1.38;;
65230;SDS011;51813;40.666;16.602;2023-04-03T04:18:25;3.90;;;1.50;;
65230;SDS011;51813;40.666;16.602;2023-04-03T04:20:51;3.60;;;1.55;;
65230;SDS011;51813;40.666;16.602;2023-04-03T04:23:17;3.10;;;1.42;;
65230;SDS011;51813;40.666;16.602;2023-04-03T04:25:46;3.47;;;1.50;;
65230;SDS011;51813;40.666;16.602;2023-04-03T04:28:13;3.28;;;1.60;;
65230;SDS011;51813;40.666;16.602;2023-04-03T04:30:39;3.80;;;1.70;;
65230;SDS011;51813;40.666;16.602;2023-04-03T04:33:05;2.95;;;1.33;;
65230;SDS011;51813;40.666;16.602;2023-04-03T04:35:31;3.58;;;1.65;;
65230;SDS011;51813;40.666;16.602;2023-04-03T04:37:57;4.10;;;1.52;;
65230;SDS011;51813;40.666;16.602;2023-04-03T04:40:23;2.22;;;1.35;;
65230;SDS011;51813;40.666;16.602;2023-04-03T04:42:49;2.30;;;1.30;;
65230;SDS011;51813;40.666;16.602;2023-04-03T04:45:15;3.85;;;1.58;;
65230;SDS011;51813;40.666;16.602;2023-04-03T04:47:41;3.05;;;1.60;;
65230;SDS011;51813;40.666;16.602;2023-04-03T04:50:07;2.40;;;1.30;;
65230;SDS011;51813;40.666;16.602;2023-04-03T04:52:33;3.55;;;1.50;;
65230;SDS011;51813;40.666;16.602;2023-04-03T04:54:59;5.05;;;1.60;;
65230;SDS011;51813;40.666;16.602;2023-04-03T04:57:25;3.90;;;1.50;;
65230;SDS011;51813;40.666;16.602;2023-04-03T04:59:50;3.22;;;1.52;;
65230;SDS011;51813;40.666;16.602;2023-04-03T05:02:16;3.03;;;1.55;;
65230;SDS011;51813;40.666;16.602;2023-04-03T05:04:42;3.65;;;1.55;;
65230;SDS011;51813;40.666;16.602;2023-04-03T05:07:07;2.88;;;1.30;;
65230;SDS011;51813;40.666;16.602;2023-04-03T05:09:33;4.10;;;1.55;;
65230;SDS011;51813;40.666;16.602;2023-04-03T05:11:59;2.90;;;1.40;;
65230;SDS011;51813;40.666;16.602;2023-04-03T05:14:25;3.53;;;1.20;;
65230;SDS011;51813;40.666;16.602;2023-04-03T05:16:50;5.28;;;1.48;;
65230;SDS011;51813;40.666;16.602;2023-04-03T05:19:19;4.53;;;1.38;;
65230;SDS011;51813;40.666;16.602;2023-04-03T05:21:46;4.78;;;1.55;;
65230;SDS011;51813;40.666;16.602;2023-04-03T05:24:12;3.60;;;1.40;;
65230;SDS011;51813;40.666;16.602;2023-04-03T05:26:38;3.58;;;1.23;;
65230;SDS011;51813;40.666;16.602;2023-04-03T05:29:03;3.17;;;1.67;;
65230;SDS011;51813;40.666;16.602;2023-04-03T05:31:29;4.90;;;1.70;;
65230;SDS011;51813;40.666;16.602;2023-04-03T05:33:55;3.95;;;1.75;;
65230;SDS011;51813;40.666;16.602;2023-04-03T05:36:21;5.00;;;2.08;;
65230;SDS011;51813;40.666;16.602;2023-04-03T05:38:47;3.63;;;1.80;;
65230;SDS011;51813;40.666;16.602;2023-04-03T05:41:13;2.40;;;1.10;;
65230;SDS011;51813;40.666;16.602;2023-04-03T05:43:40;3.42;;;1.50;;
65230;SDS011;51813;40.666;16.602;2023-04-03T05:46:10;5.18;;;1.65;;
65230;SDS011;51813;40.666;16.602;2023-04-03T05:48:37;2.90;;;1.67;;
65230;SDS011;51813;40.666;16.602;2023-04-03T05:51:03;4.05;;;1.73;;
65230;SDS011;51813;40.666;16.602;2023-04-03T05:53:29;4.25;;;1.60;;
65230;SDS011;51813;40.666;16.602;2023-04-03T05:55:58;4.05;;;1.88;;
65230;SDS011;51813;40.666;16.602;2023-04-03T05:58:23;3.50;;;1.80;;
65230;SDS011;51813;40.666;16.602;2023-04-03T06:00:49;4.63;;;1.88;;
65230;SDS011;51813;40.666;16.602;2023-04-03T06:03:15;3.80;;;1.70;;
65230;SDS011;51813;40.666;16.602;2023-04-03T06:05:41;4.75;;;1.65;;
65230;SDS011;51813;40.666;16.602;2023-04-03T06:08:07;3.28;;;1.63;;
65230;SDS011;51813;40.666;16.602;2023-04-03T06:10:34;3.22;;;1.65;;
65230;SDS011;51813;40.666;16.602;2023-04-03T06:13:00;4.32;;;2.00;;
65230;SDS011;51813;40.666;16.602;2023-04-03T06:15:26;3.35;;;1.65;;
65230;SDS011;51813;40.666;16.602;2023-04-03T06:17:53;4.85;;;1.88;;
65230;SDS011;51813;40.666;16.602;2023-04-03T06:20:19;3.10;;;1.60;;
65230;SDS011;51813;40.666;16.602;2023-04-03T06:22:45;4.75;;;1.67;;
65230;SDS011;51813;40.666;16.602;2023-04-03T06:25:11;4.05;;;1.83;;
65230;SDS011;51813;40.666;16.602;2023-04-03T06:27:37;4.90;;;1.95;;
65230;SDS011;51813;40.666;16.602;2023-04-03T06:30:04;3.92;;;1.70;;
65230;SDS011;51813;40.666;16.602;2023-04-03T06:32:31;4.53;;;1.83;;
65230;SDS011;51813;40.666;16.602;2023-04-03T06:34:57;3.47;;;1.80;;
65230;SDS011;51813;40.666;16.602;2023-04-03T06:37:23;4.38;;;1.85;;
65230;SDS011;51813;40.666;16.602;2023-04-03T06:39:51;3.80;;;2.10;;
65230;SDS011;51813;40.666;16.602;2023-04-03T06:42:17;4.30;;;2.20;;
65230;SDS011;51813;40.666;16.602;2023-04-03T06:44:43;3.83;;;1.80;;
65230;SDS011;51813;40.666;16.602;2023-04-03T06:47:15;5.32;;;1.80;;
65230;SDS011;51813;40.666;16.602;2023-04-03T06:49:41;3.35;;;2.00;;
65230;SDS011;51813;40.666;16.602;2023-04-03T06:52:07;4.13;;;1.70;;
65230;SDS011;51813;40.666;16.602;2023-04-03T06:54:34;3.22;;;2.10;;
65230;SDS011;51813;40.666;16.602;2023-04-03T06:57:01;4.80;;;2.17;;
65230;SDS011;51813;40.666;16.602;2023-04-03T06:59:27;4.65;;;1.77;;
65230;SDS011;51813;40.666;16.602;2023-04-03T07:01:53;3.72;;;2.00;;
65230;SDS011;51813;40.666;16.602;2023-04-03T07:04:18;2.97;;;1.90;;
65230;SDS011;51813;40.666;16.602;2023-04-03T07:06:45;3.35;;;1.77;;
65230;SDS011;51813;40.666;16.602;2023-04-03T07:09:12;3.60;;;1.90;;
65230;SDS011;51813;40.666;16.602;2023-04-03T07:11:39;3.30;;;1.80;;
65230;SDS011;51813;40.666;16.602;2023-04-03T07:14:05;3.95;;;1.80;;
65230;SDS011;51813;40.666;16.602;2023-04-03T07:16:32;4.72;;;1.85;;
65230;SDS011;51813;40.666;16.602;2023-04-03T07:18:59;2.90;;;1.77;;
65230;SDS011;51813;40.666;16.602;2023-04-03T07:21:26;3.60;;;2.03;;
65230;SDS011;51813;40.666;16.602;2023-04-03T07:23:52;4.50;;;2.67;;
65230;SDS011;51813;40.666;16.602;2023-04-03T07:26:18;4.35;;;2.17;;
65230;SDS011;51813;40.666;16.602;2023-04-03T07:28:45;2.97;;;1.83;;
65230;SDS011;51813;40.666;16.602;2023-04-03T07:31:13;4.40;;;1.80;;
65230;SDS011;51813;40.666;16.602;2023-04-03T07:33:40;4.00;;;2.00;;
65230;SDS011;51813;40.666;16.602;2023-04-03T07:36:06;3.45;;;1.80;;
65230;SDS011;51813;40.666;16.602;2023-04-03T07:38:36;4.50;;;1.80;;
65230;SDS011;51813;40.666;16.602;2023-04-03T07:41:02;3.90;;;1.90;;
65230;SDS011;51813;40.666;16.602;2023-04-03T07:43:29;3.22;;;1.83;;
65230;SDS011;51813;40.666;16.602;2023-04-03T07:45:55;6.45;;;2.00;;
65230;SDS011;51813;40.666;16.602;2023-04-03T07:48:21;5.13;;;2.33;;
65230;SDS011;51813;40.666;16.602;2023-04-03T07:50:48;4.07;;;2.03;;
65230;SDS011;51813;40.666;16.602;2023-04-03T07:53:14;6.45;;;2.47;;
65230;SDS011;51813;40.666;16.602;2023-04-03T07:55:40;5.85;;;2.35;;
65230;SDS011;51813;40.666;16.602;2023-04-03T07:58:13;7.63;;;3.33;;
65230;SDS011;51813;40.666;16.602;2023-04-03T08:00:40;3.80;;;2.60;;
65230;SDS011;51813;40.666;16.602;2023-04-03T08:03:07;5.32;;;2.90;;
65230;SDS011;51813;40.666;16.602;2023-04-03T08:05:38;6.35;;;2.92;;
65230;SDS011;51813;40.666;16.602;2023-04-03T08:08:06;6.53;;;3.28;;
65230;SDS011;51813;40.666;16.602;2023-04-03T08:10:32;6.38;;;3.55;;
65230;SDS011;51813;40.666;16.602;2023-04-03T08:12:59;6.15;;;3.40;;
65230;SDS011;51813;40.666;16.602;2023-04-03T08:15:25;8.52;;;3.20;;
65230;SDS011;51813;40.666;16.602;2023-04-03T08:17:51;5.65;;;3.60;;
65230;SDS011;51813;40.666;16.602;2023-04-03T08:20:17;6.95;;;3.25;;
65230;SDS011;51813;40.666;16.602;2023-04-03T08:22:43;6.13;;;3.20;;
65230;SDS011;51813;40.666;16.602;2023-04-03T08:25:09;5.95;;;3.25;;
65230;SDS011;51813;40.666;16.602;2023-04-03T08:27:34;5.75;;;3.30;;
65230;SDS011;51813;40.666;16.602;2023-04-03T08:30:00;6.05;;;3.38;;
65230;SDS011;51813;40.666;16.602;2023-04-03T08:32:28;5.22;;;3.45;;
65230;SDS011;51813;40.666;16.602;2023-04-03T08:34:54;6.20;;;3.95;;
65230;SDS011;51813;40.666;16.602;2023-04-03T08:37:20;6.60;;;3.60;;
65230;SDS011;51813;40.666;16.602;2023-04-03T08:39:46;5.47;;;3.20;;
65230;SDS011;51813;40.666;16.602;2023-04-03T08:42:24;7.88;;;3.97;;
65230;SDS011;51813;40.666;16.602;2023-04-03T08:45:19;7.45;;;3.65;;
65230;SDS011;51813;40.666;16.602;2023-04-03T08:47:53;5.43;;;3.47;;
65230;SDS011;51813;40.666;16.602;2023-04-03T08:50:33;4.45;;;2.80;;
65230;SDS011;51813;40.666;16.602;2023-04-03T08:53:03;5.03;;;3.10;;
65230;SDS011;51813;40.666;16.602;2023-04-03T08:55:37;5.05;;;3.50;;
65230;SDS011;51813;40.666;16.602;2023-04-03T08:58:18;7.00;;;3.22;;
65230;SDS011;51813;40.666;16.602;2023-04-03T09:03:42;5.82;;;3.38;;
65230;SDS011;51813;40.666;16.602;2023-04-03T09:06:13;6.18;;;3.00;;
65230;SDS011;51813;40.666;16.602;2023-04-03T09:11:43;6.20;;;3.00;;
65230;SDS011;51813;40.666;16.602;2023-04-03T09:24:47;6.45;;;3.35;;
65230;SDS011;51813;40.666;16.602;2023-04-03T09:27:32;5.63;;;3.13;;
65230;SDS011;51813;40.666;16.602;2023-04-03T09:29:58;5.78;;;3.00;;
65230;SDS011;51813;40.666;16.602;2023-04-03T09:32:29;4.95;;;3.15;;
65230;SDS011;51813;40.666;16.602;2023-04-03T09:34:57;5.50;;;3.03;;
65230;SDS011;51813;40.666;16.602;2023-04-03T09:37:35;5.90;;;2.88;;
65230;SDS011;51813;40.666;16.602;2023-04-03T09:40:03;6.03;;;2.90;;
65230;SDS011;51813;40.666;16.602;2023-04-03T09:42:30;6.20;;;2.88;;
65230;SDS011;51813;40.666;16.602;2023-04-03T09:45:01;6.72;;;2.88;;
65230;SDS011;51813;40.666;16.602;2023-04-03T09:50:20;10.30;;;2.93;;
65230;SDS011;51813;40.666;16.602;2023-04-03T09:52:48;6.55;;;3.00;;
65230;SDS011;51813;40.666;16.602;2023-04-03T10:00:28;5.18;;;2.70;;
65230;SDS011;51813;40.666;16.602;2023-04-03T10:03:03;5.47;;;2.92;;
65230;SDS011;51813;40.666;16.602;2023-04-03T10:05:34;3.92;;;2.42;;
65230;SDS011;51813;40.666;16.602;2023-04-03T10:10:43;5.97;;;2.72;;
65230;SDS011;51813;40.666;16.602;2023-04-03T10:13:15;5.30;;;2.80;;
65230;SDS011;51813;40.666;16.602;2023-04-03T10:15:45;6.72;;;2.97;;
65230;SDS011;51813;40.666;16.602;2023-04-03T10:21:32;7.45;;;2.83;;
65230;SDS011;51813;40.666;16.602;2023-04-03T10:29:41;8.68;;;3.30;;
65230;SDS011;51813;40.666;16.602;2023-04-03T10:43:32;4.88;;;3.08;;
65230;SDS011;51813;40.666;16.602;2023-04-03T10:46:09;5.97;;;2.83;;
65230;SDS011;51813;40.666;16.602;2023-04-03T10:51:53;5.30;;;3.55;;
65230;SDS011;51813;40.666;16.602;2023-04-03T10:57:31;7.47;;;3.07;;
65230;SDS011;51813;40.666;16.602;2023-04-03T10:59:58;5.22;;;3.33;;
65230;SDS011;51813;40.666;16.602;2023-04-03T11:08:09;3.95;;;2.88;;
65230;SDS011;51813;40.666;16.602;2023-04-03T11:10:45;4.60;;;3.10;;
65230;SDS011;51813;40.666;16.602;2023-04-03T11:15:48;8.10;;;3.13;;
65230;SDS011;51813;40.666;16.602;2023-04-03T11:18:15;5.40;;;2.83;;
65230;SDS011;51813;40.666;16.602;2023-04-03T11:20:58;4.82;;;2.95;;
65230;SDS011;51813;40.666;16.602;2023-04-03T11:23:33;5.68;;;3.42;;
65230;SDS011;51813;40.666;16.602;2023-04-03T11:26:09;5.32;;;3.10;;
65230;SDS011;51813;40.666;16.602;2023-04-03T11:28:40;5.45;;;3.13;;
65230;SDS011;51813;40.666;16.602;2023-04-03T11:31:10;5.00;;;3.10;;
65230;SDS011;51813;40.666;16.602;2023-04-03T11:36:26;6.30;;;3.25;;
65230;SDS011;51813;40.666;16.602;2023-04-03T11:39:03;6.00;;;3.33;;
65230;SDS011;51813;40.666;16.602;2023-04-03T11:41:40;6.03;;;3.03;;
65230;SDS011;51813;40.666;16.602;2023-04-03T11:44:13;5.65;;;3.15;;
65230;SDS011;51813;40.666;16.602;2023-04-03T11:47:00;5.97;;;2.95;;
65230;SDS011;51813;40.666;16.602;2023-04-03T11:52:39;5.18;;;3.08;;
65230;SDS011;51813;40.666;16.602;2023-04-03T11:55:36;5.22;;;2.60;;
65230;SDS011;51813;40.666;16.602;2023-04-03T12:05:56;5.30;;;2.50;;
65230;SDS011;51813;40.666;16.602;2023-04-03T12:13:39;3.90;;;2.50;;
65230;SDS011;51813;40.666;16.602;2023-04-03T12:16:19;4.20;;;2.30;;
65230;SDS011;51813;40.666;16.602;2023-04-03T12:21:21;3.95;;;2.08;;
65230;SDS011;51813;40.666;16.602;2023-04-03T12:26:31;5.07;;;2.50;;
65230;SDS011;51813;40.666;16.602;2023-04-03T12:28:57;4.57;;;2.40;;
65230;SDS011;51813;40.666;16.602;2023-04-03T12:31:25;4.68;;;2.78;;
65230;SDS011;51813;40.666;16.602;2023-04-03T12:51:13;4.43;;;2.90;;
65230;SDS011;51813;40.666;16.602;2023-04-03T12:53:41;5.90;;;3.78;;
65230;SDS011;51813;40.666;16.602;2023-04-03T12:56:22;4.22;;;2.60;;
65230;SDS011;51813;40.666;16.602;2023-04-03T12:58:55;4.20;;;3.35;;
65230;SDS011;51813;40.666;16.602;2023-04-03T13:01:40;4.30;;;2.60;;
65230;SDS011;51813;40.666;16.602;2023-04-03T13:04:05;3.97;;;2.70;;
65230;SDS011;51813;40.666;16.602;2023-04-03T13:06:34;6.80;;;3.00;;
65230;SDS011;51813;40.666;16.602;2023-04-03T13:09:29;4.95;;;2.92;;
65230;SDS011;51813;40.666;16.602;2023-04-03T13:11:58;5.80;;;3.00;;
65230;SDS011;51813;40.666;16.602;2023-04-03T13:14:34;3.47;;;2.60;;
65230;SDS011;51813;40.666;16.602;2023-04-03T13:17:33;4.82;;;3.30;;
65230;SDS011;51813;40.666;16.602;2023-04-03T13:19:53;5.28;;;3.15;;
65230;SDS011;51813;40.666;16.602;2023-04-03T13:22:35;5.18;;;2.90;;
65230;SDS011;51813;40.666;16.602;2023-04-03T13:25:08;4.65;;;2.78;;
65230;SDS011;51813;40.666;16.602;2023-04-03T13:27:37;4.13;;;2.65;;
65230;SDS011;51813;40.666;16.602;2023-04-03T13:30:05;3.90;;;2.70;;
65230;SDS011;51813;40.666;16.602;2023-04-03T13:32:32;3.58;;;2.67;;
65230;SDS011;51813;40.666;16.602;2023-04-03T13:34:58;5.03;;;2.97;;
65230;SDS011;51813;40.666;16.602;2023-04-03T13:37:32;4.13;;;2.80;;
65230;SDS011;51813;40.666;16.602;2023-04-03T13:42:32;4.13;;;2.40;;
65230;SDS011;51813;40.666;16.602;2023-04-03T13:45:24;4.53;;;3.00;;
65230;SDS011;51813;40.666;16.602;2023-04-03T13:47:53;3.92;;;2.58;;
65230;SDS011;51813;40.666;16.602;2023-04-03T13:50:48;5.95;;;2.80;;
65230;SDS011;51813;40.666;16.602;2023-04-03T13:53:17;5.00;;;2.70;;
65230;SDS011;51813;40.666;16.602;2023-04-03T14:00:37;4.07;;;2.72;;
65230;SDS011;51813;40.666;16.602;2023-04-03T14:03:12;5.05;;;2.70;;
65230;SDS011;51813;40.666;16.602;2023-04-03T14:05:49;3.83;;;2.58;;
65230;SDS011;51813;40.666;16.602;2023-04-03T14:08:15;5.28;;;2.95;;
65230;SDS011;51813;40.666;16.602;2023-04-03T14:10:41;4.75;;;3.30;;
65230;SDS011;51813;40.666;16.602;2023-04-03T14:13:09;6.47;;;3.10;;
65230;SDS011;51813;40.666;16.602;2023-04-03T14:15:39;5.13;;;2.72;;
65230;SDS011;51813;40.666;16.602;2023-04-03T14:18:05;4.68;;;3.03;;
65230;SDS011;51813;40.666;16.602;2023-04-03T14:20:31;4.97;;;3.28;;
65230;SDS011;51813;40.666;16.602;2023-04-03T14:22:56;5.53;;;3.17;;
65230;SDS011;51813;40.666;16.602;2023-04-03T14:25:23;6.63;;;3.20;;
65230;SDS011;51813;40.666;16.602;2023-04-03T14:27:51;4.72;;;3.00;;
65230;SDS011;51813;40.666;16.602;2023-04-03T14:30:23;7.50;;;3.10;;
65230;SDS011;51813;40.666;16.602;2023-04-03T14:32:51;5.60;;;2.92;;
65230;SDS011;51813;40.666;16.602;2023-04-03T14:35:17;4.68;;;3.10;;
65230;SDS011;51813;40.666;16.602;2023-04-03T14:37:44;4.88;;;3.10;;
65230;SDS011;51813;40.666;16.602;2023-04-03T14:40:16;4.95;;;2.80;;
65230;SDS011;51813;40.666;16.602;2023-04-03T14:42:51;8.23;;;3.38;;
65230;SDS011;51813;40.666;16.602;2023-04-03T14:45:20;6.03;;;2.75;;
65230;SDS011;51813;40.666;16.602;2023-04-03T14:47:47;4.03;;;2.90;;
65230;SDS011;51813;40.666;16.602;2023-04-03T14:50:16;4.18;;;2.53;;
65230;SDS011;51813;40.666;16.602;2023-04-03T14:52:47;4.70;;;3.22;;
65230;SDS011;51813;40.666;16.602;2023-04-03T14:55:15;3.67;;;2.53;;
65230;SDS011;51813;40.666;16.602;2023-04-03T14:57:41;4.70;;;2.40;;
65230;SDS011;51813;40.666;16.602;2023-04-03T15:00:11;3.20;;;2.17;;
65230;SDS011;51813;40.666;16.602;2023-04-03T15:05:06;4.07;;;2.22;;
65230;SDS011;51813;40.666;16.602;2023-04-03T15:07:35;4.28;;;2.30;;
65230;SDS011;51813;40.666;16.602;2023-04-03T15:10:13;2.83;;;2.17;;
65230;SDS011;51813;40.666;16.602;2023-04-03T15:12:40;4.43;;;2.10;;
65230;SDS011;51813;40.666;16.602;2023-04-03T15:15:06;3.75;;;1.90;;
65230;SDS011;51813;40.666;16.602;2023-04-03T15:17:33;3.50;;;2.30;;
65230;SDS011;51813;40.666;16.602;2023-04-03T15:19:59;3.15;;;2.00;;
65230;SDS011;51813;40.666;16.602;2023-04-03T15:22:25;4.45;;;2.30;;
65230;SDS011;51813;40.666;16.602;2023-04-03T15:24:51;3.47;;;2.30;;
65230;SDS011;51813;40.666;16.602;2023-04-03T15:27:17;3.45;;;2.20;;
65230;SDS011;51813;40.666;16.602;2023-04-03T15:29:43;3.35;;;2.10;;
65230;SDS011;51813;40.666;16.602;2023-04-03T15:32:10;3.60;;;2.55;;
65230;SDS011;51813;40.666;16.602;2023-04-03T15:34:36;3.95;;;2.10;;
65230;SDS011;51813;40.666;16.602;2023-04-03T15:37:02;4.45;;;2.17;;
65230;SDS011;51813;40.666;16.602;2023-04-03T15:39:28;4.30;;;2.35;;
65230;SDS011;51813;40.666;16.602;2023-04-03T15:41:54;3.67;;;2.45;;
65230;SDS011;51813;40.666;16.602;2023-04-03T15:44:21;3.85;;;2.47;;
65230;SDS011;51813;40.666;16.602;2023-04-03T15:46:47;4.22;;;2.70;;
65230;SDS011;51813;40.666;16.602;2023-04-03T15:49:16;4.63;;;2.60;;
65230;SDS011;51813;40.666;16.602;2023-04-03T15:51:46;4.15;;;2.33;;
65230;SDS011;51813;40.666;16.602;2023-04-03T15:54:11;3.08;;;2.20;;
65230;SDS011;51813;40.666;16.602;2023-04-03T15:56:37;5.10;;;2.40;;
65230;SDS011;51813;40.666;16.602;2023-04-03T15:59:03;3.85;;;2.35;;
65230;SDS011;51813;40.666;16.602;2023-04-03T16:01:29;4.40;;;2.80;;
65230;SDS011;51813;40.666;16.602;2023-04-03T16:03:54;3.28;;;2.33;;
65230;SDS011;51813;40.666;16.602;2023-04-03T16:06:20;3.17;;;2.40;;
65230;SDS011;51813;40.666;16.602;2023-04-03T16:08:46;3.78;;;2.45;;
65230;SDS011;51813;40.666;16.602;2023-04-03T16:11:13;4.30;;;2.80;;
65230;SDS011;51813;40.666;16.602;2023-04-03T16:13:39;4.38;;;2.45;;
65230;SDS011;51813;40.666;16.602;2023-04-03T16:16:05;3.17;;;2.28;;
65230;SDS011;51813;40.666;16.602;2023-04-03T16:18:31;3.67;;;2.40;;
65230;SDS011;51813;40.666;16.602;2023-04-03T16:21:00;3.88;;;2.50;;
65230;SDS011;51813;40.666;16.602;2023-04-03T16:23:26;3.72;;;2.30;;
65230;SDS011;51813;40.666;16.602;2023-04-03T16:25:52;4.00;;;2.50;;
65230;SDS011;51813;40.666;16.602;2023-04-03T16:28:17;3.40;;;2.50;;
65230;SDS011;51813;40.666;16.602;2023-04-03T16:30:44;3.42;;;2.55;;
65230;SDS011;51813;40.666;16.602;2023-04-03T16:33:12;4.28;;;2.72;;
65230;SDS011;51813;40.666;16.602;2023-04-03T16:35:38;4.55;;;2.42;;
65230;SDS011;51813;40.666;16.602;2023-04-03T16:38:04;4.82;;;2.78;;
65230;SDS011;51813;40.666;16.602;2023-04-03T16:40:30;6.15;;;2.80;;